createdAt,value
2023-03-17T00:04:48.147Z,46441.69
2023-03-17T00:09:54.147Z,46449.69
2023-03-17T00:14:58.756Z,46459.69
2023-03-17T00:20:03.717Z,46437.72
2023-03-17T00:25:20.431Z,46419.72
2023-03-17T00:30:25.440Z,46423.72
2023-03-17T00:35:31.178Z,46381.78
2023-03-17T00:40:36.983Z,46371.81
2023-03-17T00:45:42.749Z,46361.81
2023-03-17T00:50:47.775Z,46347.84
2023-03-17T00:55:54.609Z,46319.88
2023-03-17T01:00:59.872Z,46313.88
2023-03-17T01:06:07.839Z,46242.00
2023-03-17T01:11:17.986Z,46188.06
2023-03-17T01:16:24.688Z,46152.13
2023-03-17T01:21:29.673Z,46126.16
2023-03-17T01:26:35.610Z,46086.22
2023-03-17T01:31:39.838Z,46006.34
2023-03-17T01:36:44.226Z,45984.38
2023-03-17T01:41:50.057Z,45978.38
2023-03-17T01:46:55.060Z,45924.47
2023-03-17T01:52:05.477Z,45954.44
2023-03-17T01:57:16.298Z,45840.59
2023-03-17T02:02:26.092Z,45754.75
2023-03-17T02:07:30.522Z,45728.78
2023-03-17T02:12:37.445Z,45467.22
2023-03-17T02:17:41.694Z,45295.50
2023-03-17T02:22:52.715Z,45205.66
2023-03-17T02:28:00.833Z,45223.63
2023-03-17T02:33:06.238Z,45063.91
2023-03-17T02:38:12.166Z,45055.91
2023-03-17T02:43:16.929Z,45089.84
2023-03-17T02:48:23.050Z,45021.97
2023-03-17T02:53:28.723Z,44992.03
2023-03-17T02:58:33.096Z,45049.94
2023-03-17T03:03:37.887Z,45073.88
2023-03-17T03:08:43.735Z,45103.84
2023-03-17T03:13:48.101Z,45139.78
2023-03-17T03:18:52.340Z,45135.78
2023-03-17T03:23:58.402Z,45131.78
2023-03-17T03:29:02.674Z,45111.81
2023-03-17T03:34:07.025Z,45127.78
2023-03-17T03:39:14.429Z,45141.75
2023-03-17T03:44:18.767Z,45139.78
2023-03-17T03:49:23.165Z,45131.78
2023-03-17T03:54:29.096Z,45083.88
2023-03-17T03:59:33.255Z,45105.81
2023-03-17T04:04:37.998Z,45087.84
2023-03-17T04:09:43.856Z,45035.94
2023-03-17T04:14:48.050Z,45071.88
2023-03-17T04:19:52.524Z,45105.81
2023-03-17T04:24:58.351Z,45075.88
2023-03-17T04:30:02.814Z,45000.00
2023-03-17T04:35:09.393Z,45053.91
2023-03-17T04:40:17.231Z,45063.91
2023-03-17T04:45:21.772Z,45008.00
2023-03-17T04:50:25.870Z,44982.06
2023-03-17T04:55:31.803Z,45027.97
2023-03-17T05:00:39.026Z,45033.97
2023-03-17T05:05:43.802Z,44984.03
2023-03-17T05:10:49.925Z,45004.00
2023-03-17T05:15:55.854Z,45010.00
2023-03-17T05:21:00.251Z,45023.97
2023-03-17T05:26:06.663Z,45077.88
2023-03-17T05:31:11.952Z,45095.84
2023-03-17T05:36:16.614Z,45145.75
2023-03-17T05:41:22.277Z,45165.72
2023-03-17T05:46:26.948Z,45157.75
2023-03-17T05:51:31.771Z,45167.72
2023-03-17T05:56:37.741Z,45193.69
2023-03-17T06:01:42.130Z,45335.44
2023-03-17T06:06:46.610Z,45385.34
2023-03-17T06:11:52.651Z,45421.28
2023-03-17T06:16:57.081Z,45495.16
2023-03-17T06:22:01.686Z,45537.09
2023-03-17T06:27:08.088Z,45678.84
2023-03-17T06:32:20.313Z,45680.84
2023-03-17T06:37:25.384Z,45710.81
2023-03-17T06:42:31.736Z,45736.78
2023-03-17T06:47:37.479Z,45678.84
2023-03-17T06:52:42.386Z,45798.66
2023-03-17T06:57:50.888Z,45984.38
2023-03-17T07:02:55.480Z,45792.69
2023-03-17T07:08:00.532Z,46006.34
2023-03-17T07:13:08.020Z,46004.34
2023-03-17T07:18:12.410Z,46212.03
2023-03-17T07:23:20.350Z,46098.19
2023-03-17T07:28:26.340Z,46345.84
2023-03-17T07:33:31.249Z,46501.63
2023-03-17T07:38:36.478Z,46703.34
2023-03-17T07:43:42.611Z,46545.56
2023-03-17T07:48:47.127Z,46861.13
2023-03-17T07:53:52.149Z,46775.25
2023-03-17T07:58:59.237Z,46905.06
2023-03-17T08:04:03.666Z,46955.00
2023-03-17T08:09:09.051Z,47000.94
2023-03-17T08:14:15.028Z,47100.81
2023-03-17T08:19:19.378Z,47180.72
2023-03-17T08:24:23.758Z,47298.56
2023-03-17T08:29:30.382Z,47278.59
2023-03-17T08:34:35.064Z,47290.59
2023-03-17T08:39:39.663Z,47366.50
2023-03-17T08:44:45.499Z,47364.50
2023-03-17T08:49:49.850Z,47400.44
2023-03-17T08:54:58.450Z,47394.47
2023-03-17T09:00:11.139Z,47380.47
2023-03-17T09:05:18.738Z,47368.50
2023-03-17T09:10:23.776Z,47362.50
2023-03-17T09:15:29.946Z,47394.47
2023-03-17T09:20:35.081Z,47388.47
2023-03-17T09:25:41.597Z,47358.50
2023-03-17T09:30:47.861Z,47370.50
2023-03-17T09:35:53.225Z,47400.44
2023-03-17T09:41:07.716Z,47424.44
2023-03-17T09:46:38.870Z,47422.44
2023-03-17T09:51:46.583Z,47352.50
2023-03-17T09:57:01.869Z,47382.47
2023-03-17T10:02:19.938Z,47392.47
2023-03-17T10:07:29.936Z,47410.44
2023-03-17T10:12:45.586Z,47410.44
2023-03-17T10:17:53.614Z,47388.47
2023-03-17T10:22:59.587Z,47370.50
2023-03-17T10:28:09.186Z,47402.44
2023-03-17T10:33:15.240Z,47354.50
2023-03-17T10:38:21.851Z,47400.44
2023-03-17T10:43:31.585Z,47344.53
2023-03-17T10:48:40.187Z,47372.47
2023-03-17T10:53:44.404Z,47380.47
2023-03-17T10:58:51.120Z,47338.53
2023-03-17T11:03:57.850Z,47360.50
2023-03-17T11:09:09.603Z,47356.50
2023-03-17T11:14:15.711Z,47354.50
2023-03-17T11:19:23.392Z,47296.56
2023-03-17T11:24:33.525Z,47284.59
2023-03-17T11:30:03.694Z,47380.47
2023-03-17T11:35:23.406Z,47360.50
2023-03-17T11:40:34.061Z,47366.50
2023-03-17T11:45:46.618Z,47392.47
2023-03-17T11:50:59.879Z,47364.50
2023-03-17T11:56:10.956Z,47374.47
2023-03-17T12:01:19.520Z,47388.47
2023-03-17T12:06:31.996Z,47314.56
2023-03-17T12:11:41.358Z,47296.56
2023-03-17T12:16:49.688Z,47334.53
2023-03-17T12:22:00.568Z,47358.50
2023-03-17T12:27:10.618Z,47342.53
2023-03-17T12:32:21.179Z,47352.50
2023-03-17T12:37:30.428Z,47348.50
2023-03-17T12:42:48.377Z,47338.53
2023-03-17T12:48:08.314Z,47350.50
2023-03-17T12:53:19.945Z,47356.50
2023-03-17T12:58:39.265Z,47276.59
2023-03-17T13:03:57.736Z,47264.63
2023-03-17T13:09:34.918Z,47288.59
2023-03-17T13:14:44.532Z,47286.59
2023-03-17T13:19:57.853Z,47292.59
2023-03-17T13:25:27.638Z,47306.56
2023-03-17T13:31:01.206Z,47302.56
2023-03-17T13:36:27.977Z,47338.53
2023-03-17T13:41:57.688Z,47348.50
2023-03-17T13:47:27.368Z,47310.56
2023-03-17T13:52:35.073Z,47318.56
2023-03-17T13:57:41.236Z,47252.63
2023-03-17T14:02:46.258Z,47274.59
2023-03-17T14:07:56.309Z,47276.59
2023-03-17T14:13:13.555Z,47256.63
2023-03-17T14:18:31.469Z,47278.59
2023-03-17T14:23:36.137Z,47240.66
2023-03-17T14:28:42.490Z,47332.53
2023-03-17T14:33:46.948Z,47304.56
2023-03-17T14:38:52.654Z,47312.56
2023-03-17T14:44:08.578Z,47252.63
2023-03-17T14:49:22.126Z,47272.59
2023-03-17T14:54:30.111Z,47356.50
2023-03-17T14:59:38.173Z,47342.53
2023-03-17T15:04:53.084Z,47400.44
2023-03-17T15:10:01.918Z,47382.47
2023-03-17T15:15:21.649Z,47378.47
2023-03-17T15:20:26.756Z,47396.47
2023-03-17T15:25:38.325Z,47394.47
2023-03-17T15:30:47.926Z,47416.44
2023-03-17T15:35:52.605Z,47386.47
2023-03-17T15:40:57.388Z,47430.41
2023-03-17T15:46:05.323Z,47438.41
2023-03-17T15:51:12.512Z,47428.41
2023-03-17T15:56:19.193Z,47452.38
2023-03-17T16:01:27.770Z,47482.34
2023-03-17T16:06:32.392Z,47490.34
2023-03-17T16:11:37.884Z,47446.41
2023-03-17T16:16:45.996Z,47486.34
2023-03-17T16:21:50.757Z,47500.34
2023-03-17T16:26:55.266Z,47464.38
2023-03-17T16:32:01.096Z,47494.34
2023-03-17T16:37:05.922Z,47484.34
2023-03-17T16:42:22.347Z,47522.31
2023-03-17T16:47:28.139Z,47490.34
2023-03-17T16:52:32.275Z,47514.31
2023-03-17T16:57:36.806Z,47512.31
2023-03-17T17:02:43.175Z,47488.34
2023-03-17T17:07:48.123Z,47488.34
2023-03-17T17:12:53.767Z,47504.34
2023-03-17T17:18:02.820Z,47492.34
2023-03-17T17:23:11.658Z,47496.34
2023-03-17T17:28:19.567Z,47516.31
2023-03-17T17:33:26.130Z,47496.34
2023-03-17T17:38:30.747Z,47504.34
2023-03-17T17:43:35.109Z,47492.34
2023-03-17T17:48:41.409Z,47468.38
2023-03-17T17:53:49.182Z,47494.34
2023-03-17T17:58:54.098Z,47508.31
2023-03-17T18:04:00.015Z,47508.31
2023-03-17T18:09:05.553Z,47530.31
2023-03-17T18:14:11.587Z,47502.34
2023-03-17T18:19:17.865Z,47502.34
2023-03-17T18:24:22.289Z,47528.31
2023-03-17T18:29:28.061Z,47510.31
2023-03-17T18:34:36.676Z,47530.31
2023-03-17T18:39:41.369Z,47520.31
2023-03-17T18:44:46.137Z,47510.31
2023-03-17T18:49:52.005Z,47534.28
2023-03-17T18:54:56.408Z,47534.28
2023-03-17T19:00:00.975Z,47514.31
2023-03-17T19:05:07.810Z,47558.28
2023-03-17T19:10:14.168Z,47544.28
2023-03-17T19:15:18.639Z,47536.28
2023-03-17T19:20:24.261Z,47510.31
2023-03-17T19:25:28.752Z,47526.31
2023-03-17T19:30:33.516Z,47494.34
2023-03-17T19:35:40.020Z,47542.28
2023-03-17T19:40:44.470Z,47520.31
2023-03-17T19:45:48.913Z,47542.28
2023-03-17T19:50:54.875Z,47508.31
2023-03-17T19:55:59.077Z,47532.31
2023-03-17T20:01:04.333Z,47526.31
2023-03-17T20:06:10.150Z,47528.31
2023-03-17T20:11:14.713Z,47516.31
2023-03-17T20:16:19.025Z,47490.34
2023-03-17T20:21:24.930Z,47534.28
2023-03-17T20:26:29.347Z,47518.31
2023-03-17T20:31:34.055Z,47500.34
2023-03-17T20:36:42.597Z,47516.31
2023-03-17T20:41:48.173Z,47506.31
2023-03-17T20:46:53.225Z,47506.31
2023-03-17T20:51:58.964Z,47552.28
2023-03-17T20:57:03.330Z,47522.31
2023-03-17T21:02:08.141Z,47496.34
2023-03-17T21:07:14.772Z,47472.38
2023-03-17T21:12:21.183Z,47520.31
2023-03-17T21:17:26.640Z,47472.38
2023-03-17T21:22:32.512Z,47532.31
2023-03-17T21:27:37.860Z,47532.31
2023-03-17T21:32:42.606Z,47512.31
2023-03-17T21:37:48.658Z,47478.34
2023-03-17T21:42:53.069Z,47536.28
2023-03-17T21:47:57.620Z,47520.31
2023-03-17T21:53:03.360Z,47526.31
2023-03-17T21:58:08.450Z,47510.31
2023-03-17T22:03:12.940Z,47510.31
2023-03-17T22:08:18.631Z,47514.31
2023-03-17T22:13:23.340Z,47514.31
2023-03-17T22:18:27.682Z,47508.31
2023-03-17T22:23:38.231Z,47496.34
2023-03-17T22:28:43.290Z,47528.31
2023-03-17T22:33:49.063Z,47510.31
2023-03-17T22:38:56.322Z,47474.38
2023-03-17T22:44:00.690Z,47500.34
2023-03-17T22:49:05.685Z,47496.34
2023-03-17T22:54:11.968Z,47520.31
2023-03-17T22:59:16.396Z,47512.31
2023-03-17T23:04:20.783Z,47512.31
2023-03-17T23:09:26.803Z,47494.34
2023-03-17T23:14:31.898Z,47472.38
2023-03-17T23:19:36.433Z,47504.34
2023-03-17T23:24:42.248Z,47520.31
2023-03-17T23:29:46.728Z,47482.34
2023-03-17T23:34:51.807Z,47504.34
2023-03-17T23:39:57.502Z,47548.28
2023-03-17T23:45:02.432Z,47500.34
2023-03-17T23:50:07.976Z,47488.34
2023-03-17T23:55:14.087Z,47490.34
